sensor_id;sensor_type;location;lat;lon;timestamp;temperature;humidity
61807;DHT22;47726;52.766;6.606;2023-02-01T00:01:38;5.30;99.90
61807;DHT22;47726;52.766;6.606;2023-02-01T00:04:04;5.30;99.90
61807;DHT22;47726;52.766;6.606;2023-02-01T00:06:29;5.30;99.90
61807;DHT22;47726;52.766;6.606;2023-02-01T00:08:55;5.30;99.90
61807;DHT22;47726;52.766;6.606;2023-02-01T00:11:22;5.30;99.90
61807;DHT22;47726;52.766;6.606;2023-02-01T00:13:48;5.30;99.90
61807;DHT22;47726;52.766;6.606;2023-02-01T00:16:22;5.30;99.90
61807;DHT22;47726;52.766;6.606;2023-02-01T00:18:50;5.30;99.90
61807;DHT22;47726;52.766;6.606;2023-02-01T00:21:18;5.30;99.90
61807;DHT22;47726;52.766;6.606;2023-02-01T00:23:44;5.40;99.90
61807;DHT22;47726;52.766;6.606;2023-02-01T00:28:49;5.30;99.90
61807;DHT22;47726;52.766;6.606;2023-02-01T00:31:14;5.40;99.90
61807;DHT22;47726;52.766;6.606;2023-02-01T00:33:40;5.40;99.90
61807;DHT22;47726;52.766;6.606;2023-02-01T00:36:07;5.40;99.90
61807;DHT22;47726;52.766;6.606;2023-02-01T00:38:36;5.40;99.90
61807;DHT22;47726;52.766;6.606;2023-02-01T00:41:12;5.40;99.90
61807;DHT22;47726;52.766;6.606;2023-02-01T00:43:38;5.40;99.90
61807;DHT22;47726;52.766;6.606;2023-02-01T00:46:04;5.40;99.90
61807;DHT22;47726;52.766;6.606;2023-02-01T00:48:30;5.40;99.90
61807;DHT22;47726;52.766;6.606;2023-02-01T00:51:02;5.40;99.90
61807;DHT22;47726;52.766;6.606;2023-02-01T00:53:29;5.40;99.90
61807;DHT22;47726;52.766;6.606;2023-02-01T00:55:54;5.40;99.90
61807;DHT22;47726;52.766;6.606;2023-02-01T00:58:20;5.40;99.90
61807;DHT22;47726;52.766;6.606;2023-02-01T01:00:46;5.40;99.90
61807;DHT22;47726;52.766;6.606;2023-02-01T01:03:12;5.40;99.90
61807;DHT22;47726;52.766;6.606;2023-02-01T01:05:48;5.40;99.90
61807;DHT22;47726;52.766;6.606;2023-02-01T01:08:14;5.50;99.90
61807;DHT22;47726;52.766;6.606;2023-02-01T01:10:41;5.50;99.90
61807;DHT22;47726;52.766;6.606;2023-02-01T01:13:06;5.50;99.90
61807;DHT22;47726;52.766;6.606;2023-02-01T01:15:39;5.50;99.90
61807;DHT22;47726;52.766;6.606;2023-02-01T01:18:05;5.50;99.90
61807;DHT22;47726;52.766;6.606;2023-02-01T01:20:33;5.50;99.90
61807;DHT22;47726;52.766;6.606;2023-02-01T01:22:59;5.50;99.90
61807;DHT22;47726;52.766;6.606;2023-02-01T01:25:24;5.50;99.90
61807;DHT22;47726;52.766;6.606;2023-02-01T01:27:50;5.50;99.90
61807;DHT22;47726;52.766;6.606;2023-02-01T01:30:16;5.50;99.90
61807;DHT22;47726;52.766;6.606;2023-02-01T01:32:41;5.50;99.90
61807;DHT22;47726;52.766;6.606;2023-02-01T01:35:07;5.50;99.90
61807;DHT22;47726;52.766;6.606;2023-02-01T01:37:33;5.60;99.90
61807;DHT22;47726;52.766;6.606;2023-02-01T01:39:58;5.60;99.90
61807;DHT22;47726;52.766;6.606;2023-02-01T01:42:24;5.60;99.90
61807;DHT22;47726;52.766;6.606;2023-02-01T01:45:00;5.60;99.90
61807;DHT22;47726;52.766;6.606;2023-02-01T01:47:31;5.50;99.90
61807;DHT22;47726;52.766;6.606;2023-02-01T01:50:00;5.60;99.90
61807;DHT22;47726;52.766;6.606;2023-02-01T01:52:25;5.60;99.90
61807;DHT22;47726;52.766;6.606;2023-02-01T01:54:52;5.60;99.90
61807;DHT22;47726;52.766;6.606;2023-02-01T01:57:27;5.60;99.90
61807;DHT22;47726;52.766;6.606;2023-02-01T02:00:01;5.60;99.90
61807;DHT22;47726;52.766;6.606;2023-02-01T02:02:27;5.60;99.90
61807;DHT22;47726;52.766;6.606;2023-02-01T02:04:53;5.60;99.90
61807;DHT22;47726;52.766;6.606;2023-02-01T02:07:23;5.60;99.90
61807;DHT22;47726;52.766;6.606;2023-02-01T02:09:50;5.60;99.90
61807;DHT22;47726;52.766;6.606;2023-02-01T02:12:16;5.60;99.90
61807;DHT22;47726;52.766;6.606;2023-02-01T02:14:42;5.60;99.90
61807;DHT22;47726;52.766;6.606;2023-02-01T02:17:31;5.70;99.90
61807;DHT22;47726;52.766;6.606;2023-02-01T02:34:26;5.70;99.90
61807;DHT22;47726;52.766;6.606;2023-02-01T02:37:09;5.70;99.90
61807;DHT22;47726;52.766;6.606;2023-02-01T02:45:27;5.70;99.90
61807;DHT22;47726;52.766;6.606;2023-02-01T02:48:19;5.70;99.90
61807;DHT22;47726;52.766;6.606;2023-02-01T02:54:11;5.70;99.90
61807;DHT22;47726;52.766;6.606;2023-02-01T02:56:58;5.70;99.90
61807;DHT22;47726;52.766;6.606;2023-02-01T02:59:44;5.70;99.90
61807;DHT22;47726;52.766;6.606;2023-02-01T03:02:29;5.70;99.90
61807;DHT22;47726;52.766;6.606;2023-02-01T03:05:14;5.70;99.90
61807;DHT22;47726;52.766;6.606;2023-02-01T03:13:10;5.70;99.90
61807;DHT22;47726;52.766;6.606;2023-02-01T03:15:59;5.70;99.90
61807;DHT22;47726;52.766;6.606;2023-02-01T03:18:38;5.70;99.90
61807;DHT22;47726;52.766;6.606;2023-02-01T03:21:12;5.70;99.90
61807;DHT22;47726;52.766;6.606;2023-02-01T03:23:39;5.60;99.90
61807;DHT22;47726;52.766;6.606;2023-02-01T03:26:10;5.60;99.90
61807;DHT22;47726;52.766;6.606;2023-02-01T03:28:39;5.70;99.90
61807;DHT22;47726;52.766;6.606;2023-02-01T03:31:08;5.70;99.90
61807;DHT22;47726;52.766;6.606;2023-02-01T03:33:33;5.70;99.90
61807;DHT22;47726;52.766;6.606;2023-02-01T03:36:04;5.70;99.90
61807;DHT22;47726;52.766;6.606;2023-02-01T03:38:48;5.70;99.90
61807;DHT22;47726;52.766;6.606;2023-02-01T03:44:24;5.70;99.90
61807;DHT22;47726;52.766;6.606;2023-02-01T03:47:19;5.70;99.90
61807;DHT22;47726;52.766;6.606;2023-02-01T03:49:50;5.70;99.90
61807;DHT22;47726;52.766;6.606;2023-02-01T03:52:22;5.70;99.90
61807;DHT22;47726;52.766;6.606;2023-02-01T03:54:49;5.70;99.90
61807;DHT22;47726;52.766;6.606;2023-02-01T03:57:20;5.70;99.90
61807;DHT22;47726;52.766;6.606;2023-02-01T03:59:47;5.70;99.90
61807;DHT22;47726;52.766;6.606;2023-02-01T04:02:12;5.70;99.90
61807;DHT22;47726;52.766;6.606;2023-02-01T04:04:38;5.70;99.90
61807;DHT22;47726;52.766;6.606;2023-02-01T04:07:03;5.70;99.90
61807;DHT22;47726;52.766;6.606;2023-02-01T04:09:29;5.70;99.90
61807;DHT22;47726;52.766;6.606;2023-02-01T04:11:55;5.70;99.90
61807;DHT22;47726;52.766;6.606;2023-02-01T04:14:21;5.70;99.90
61807;DHT22;47726;52.766;6.606;2023-02-01T04:16:46;5.70;99.90
61807;DHT22;47726;52.766;6.606;2023-02-01T04:19:12;5.70;99.90
61807;DHT22;47726;52.766;6.606;2023-02-01T04:21:37;5.70;99.90
61807;DHT22;47726;52.766;6.606;2023-02-01T04:24:03;5.70;99.90
61807;DHT22;47726;52.766;6.606;2023-02-01T04:26:29;5.70;99.90
61807;DHT22;47726;52.766;6.606;2023-02-01T04:28:55;5.70;99.90
61807;DHT22;47726;52.766;6.606;2023-02-01T04:31:20;5.70;99.90
61807;DHT22;47726;52.766;6.606;2023-02-01T04:33:55;5.70;99.90
61807;DHT22;47726;52.766;6.606;2023-02-01T04:36:23;5.70;99.90
61807;DHT22;47726;52.766;6.606;2023-02-01T04:38:49;5.70;99.90
61807;DHT22;47726;52.766;6.606;2023-02-01T04:41:15;5.70;99.90
61807;DHT22;47726;52.766;6.606;2023-02-01T04:43:47;5.70;99.90
61807;DHT22;47726;52.766;6.606;2023-02-01T04:46:13;5.70;99.90
61807;DHT22;47726;52.766;6.606;2023-02-01T04:48:39;5.70;99.90
61807;DHT22;47726;52.766;6.606;2023-02-01T04:51:05;5.70;99.90
61807;DHT22;47726;52.766;6.606;2023-02-01T04:53:31;5.70;99.90
61807;DHT22;47726;52.766;6.606;2023-02-01T04:55:56;5.70;99.90
61807;DHT22;47726;52.766;6.606;2023-02-01T04:58:22;5.70;99.90
61807;DHT22;47726;52.766;6.606;2023-02-01T05:00:48;5.80;99.90
61807;DHT22;47726;52.766;6.606;2023-02-01T05:03:13;5.80;99.90
61807;DHT22;47726;52.766;6.606;2023-02-01T05:05:39;5.80;99.90
61807;DHT22;47726;52.766;6.606;2023-02-01T05:08:04;5.70;99.90
61807;DHT22;47726;52.766;6.606;2023-02-01T05:10:30;5.80;99.90
61807;DHT22;47726;52.766;6.606;2023-02-01T05:12:55;5.70;99.90
61807;DHT22;47726;52.766;6.606;2023-02-01T05:15:40;5.70;99.90
61807;DHT22;47726;52.766;6.606;2023-02-01T05:18:05;5.70;99.90
61807;DHT22;47726;52.766;6.606;2023-02-01T05:20:31;5.70;99.90
61807;DHT22;47726;52.766;6.606;2023-02-01T05:22:57;5.70;99.90
61807;DHT22;47726;52.766;6.606;2023-02-01T05:25:22;5.70;99.90
61807;DHT22;47726;52.766;6.606;2023-02-01T05:27:48;5.70;99.90
61807;DHT22;47726;52.766;6.606;2023-02-01T05:30:14;5.70;99.90
61807;DHT22;47726;52.766;6.606;2023-02-01T05:32:39;5.60;99.90
61807;DHT22;47726;52.766;6.606;2023-02-01T05:35:05;5.70;99.90
61807;DHT22;47726;52.766;6.606;2023-02-01T05:37:31;5.70;99.90
61807;DHT22;47726;52.766;6.606;2023-02-01T05:39:56;5.70;99.90
61807;DHT22;47726;52.766;6.606;2023-02-01T05:42:22;5.70;99.90
61807;DHT22;47726;52.766;6.606;2023-02-01T05:44:48;5.70;99.90
61807;DHT22;47726;52.766;6.606;2023-02-01T05:47:13;5.70;99.90
61807;DHT22;47726;52.766;6.606;2023-02-01T05:49:39;5.70;99.90
61807;DHT22;47726;52.766;6.606;2023-02-01T05:52:05;5.70;99.90
61807;DHT22;47726;52.766;6.606;2023-02-01T05:54:30;5.70;99.90
61807;DHT22;47726;52.766;6.606;2023-02-01T05:56:56;5.70;99.90
61807;DHT22;47726;52.766;6.606;2023-02-01T05:59:22;5.70;99.90
61807;DHT22;47726;52.766;6.606;2023-02-01T06:01:47;5.70;99.90
61807;DHT22;47726;52.766;6.606;2023-02-01T06:04:13;5.70;99.90
61807;DHT22;47726;52.766;6.606;2023-02-01T06:06:38;5.80;99.90
61807;DHT22;47726;52.766;6.606;2023-02-01T06:09:04;5.70;99.90
61807;DHT22;47726;52.766;6.606;2023-02-01T06:11:30;5.80;99.90
61807;DHT22;47726;52.766;6.606;2023-02-01T06:13:56;5.80;99.90
61807;DHT22;47726;52.766;6.606;2023-02-01T06:16:22;5.80;99.90
61807;DHT22;47726;52.766;6.606;2023-02-01T06:18:48;5.80;99.90
61807;DHT22;47726;52.766;6.606;2023-02-01T06:21:14;5.80;99.90
61807;DHT22;47726;52.766;6.606;2023-02-01T06:23:51;5.80;99.90
61807;DHT22;47726;52.766;6.606;2023-02-01T06:26:17;5.80;99.90
61807;DHT22;47726;52.766;6.606;2023-02-01T06:28:43;5.80;99.90
61807;DHT22;47726;52.766;6.606;2023-02-01T06:31:09;5.80;99.90
61807;DHT22;47726;52.766;6.606;2023-02-01T06:33:36;5.80;99.90
61807;DHT22;47726;52.766;6.606;2023-02-01T06:36:04;5.80;99.90
61807;DHT22;47726;52.766;6.606;2023-02-01T06:38:30;5.80;99.90
61807;DHT22;47726;52.766;6.606;2023-02-01T06:40:57;5.80;99.90
61807;DHT22;47726;52.766;6.606;2023-02-01T06:43:24;5.80;99.90
61807;DHT22;47726;52.766;6.606;2023-02-01T06:45:51;5.90;99.90
61807;DHT22;47726;52.766;6.606;2023-02-01T06:48:17;5.90;99.90
61807;DHT22;47726;52.766;6.606;2023-02-01T06:50:43;5.90;99.90
61807;DHT22;47726;52.766;6.606;2023-02-01T06:53:09;5.80;99.90
61807;DHT22;47726;52.766;6.606;2023-02-01T06:55:34;5.90;99.90
61807;DHT22;47726;52.766;6.606;2023-02-01T06:58:00;5.90;99.90
61807;DHT22;47726;52.766;6.606;2023-02-01T07:00:28;5.90;99.90
61807;DHT22;47726;52.766;6.606;2023-02-01T07:02:54;5.90;99.90
61807;DHT22;47726;52.766;6.606;2023-02-01T07:05:21;5.90;99.90
61807;DHT22;47726;52.766;6.606;2023-02-01T07:07:47;5.90;99.90
61807;DHT22;47726;52.766;6.606;2023-02-01T07:10:12;5.90;99.90
61807;DHT22;47726;52.766;6.606;2023-02-01T07:12:38;5.90;99.90
61807;DHT22;47726;52.766;6.606;2023-02-01T07:15:05;5.90;99.90
61807;DHT22;47726;52.766;6.606;2023-02-01T07:17:31;5.90;99.90
61807;DHT22;47726;52.766;6.606;2023-02-01T07:19:56;5.90;99.90
61807;DHT22;47726;52.766;6.606;2023-02-01T07:22:25;5.90;99.90
61807;DHT22;47726;52.766;6.606;2023-02-01T07:24:51;5.90;99.90
61807;DHT22;47726;52.766;6.606;2023-02-01T07:27:16;5.90;99.90
61807;DHT22;47726;52.766;6.606;2023-02-01T07:29:42;5.90;99.90
61807;DHT22;47726;52.766;6.606;2023-02-01T07:32:07;5.90;99.90
61807;DHT22;47726;52.766;6.606;2023-02-01T07:34:33;5.90;99.90
61807;DHT22;47726;52.766;6.606;2023-02-01T07:36:59;5.90;99.90
61807;DHT22;47726;52.766;6.606;2023-02-01T07:39:24;5.90;99.90
61807;DHT22;47726;52.766;6.606;2023-02-01T07:41:53;5.90;99.90
61807;DHT22;47726;52.766;6.606;2023-02-01T07:44:19;5.90;99.90
61807;DHT22;47726;52.766;6.606;2023-02-01T07:46:48;5.90;99.90
61807;DHT22;47726;52.766;6.606;2023-02-01T07:49:14;5.90;99.90
61807;DHT22;47726;52.766;6.606;2023-02-01T07:51:39;5.90;99.90
61807;DHT22;47726;52.766;6.606;2023-02-01T07:54:05;6.00;99.90
61807;DHT22;47726;52.766;6.606;2023-02-01T07:56:30;5.90;99.90
61807;DHT22;47726;52.766;6.606;2023-02-01T07:58:56;5.90;99.90
61807;DHT22;47726;52.766;6.606;2023-02-01T08:01:26;6.00;99.90
61807;DHT22;47726;52.766;6.606;2023-02-01T08:03:57;6.00;99.90
61807;DHT22;47726;52.766;6.606;2023-02-01T08:06:25;6.00;99.90
61807;DHT22;47726;52.766;6.606;2023-02-01T08:08:52;6.00;99.90
61807;DHT22;47726;52.766;6.606;2023-02-01T08:11:19;6.00;99.90
61807;DHT22;47726;52.766;6.606;2023-02-01T08:13:44;6.00;99.90
61807;DHT22;47726;52.766;6.606;2023-02-01T08:16:11;6.00;99.90
61807;DHT22;47726;52.766;6.606;2023-02-01T08:18:38;6.00;99.90
61807;DHT22;47726;52.766;6.606;2023-02-01T08:21:05;6.00;99.90
61807;DHT22;47726;52.766;6.606;2023-02-01T08:23:31;6.00;99.90
61807;DHT22;47726;52.766;6.606;2023-02-01T08:26:17;6.00;99.90
61807;DHT22;47726;52.766;6.606;2023-02-01T08:28:52;6.00;99.90
61807;DHT22;47726;52.766;6.606;2023-02-01T08:31:19;6.10;99.90
61807;DHT22;47726;52.766;6.606;2023-02-01T08:33:52;6.00;99.90
61807;DHT22;47726;52.766;6.606;2023-02-01T08:36:18;6.10;99.90
61807;DHT22;47726;52.766;6.606;2023-02-01T08:38:44;6.10;99.90
61807;DHT22;47726;52.766;6.606;2023-02-01T08:41:13;6.10;99.90
61807;DHT22;47726;52.766;6.606;2023-02-01T08:43:39;6.10;99.90
61807;DHT22;47726;52.766;6.606;2023-02-01T08:46:05;6.10;99.90
61807;DHT22;47726;52.766;6.606;2023-02-01T08:48:32;6.10;99.90
61807;DHT22;47726;52.766;6.606;2023-02-01T08:51:04;6.10;99.90
61807;DHT22;47726;52.766;6.606;2023-02-01T08:53:30;6.10;99.90
61807;DHT22;47726;52.766;6.606;2023-02-01T08:55:56;6.10;99.90
61807;DHT22;47726;52.766;6.606;2023-02-01T08:58:22;6.20;99.90
61807;DHT22;47726;52.766;6.606;2023-02-01T09:00:48;6.20;99.90
61807;DHT22;47726;52.766;6.606;2023-02-01T09:03:14;6.20;99.90
61807;DHT22;47726;52.766;6.606;2023-02-01T09:05:40;6.20;99.90
61807;DHT22;47726;52.766;6.606;2023-02-01T09:08:06;6.20;99.90
61807;DHT22;47726;52.766;6.606;2023-02-01T09:10:33;6.20;99.90
61807;DHT22;47726;52.766;6.606;2023-02-01T09:12:59;6.20;99.90
61807;DHT22;47726;52.766;6.606;2023-02-01T09:15:24;6.30;99.90
61807;DHT22;47726;52.766;6.606;2023-02-01T09:17:50;6.30;99.90
61807;DHT22;47726;52.766;6.606;2023-02-01T09:20:15;6.30;99.90
61807;DHT22;47726;52.766;6.606;2023-02-01T09:22:41;6.30;99.90
61807;DHT22;47726;52.766;6.606;2023-02-01T09:25:07;6.30;99.90
61807;DHT22;47726;52.766;6.606;2023-02-01T09:27:34;6.30;99.90
61807;DHT22;47726;52.766;6.606;2023-02-01T09:29:59;6.30;99.90
61807;DHT22;47726;52.766;6.606;2023-02-01T09:32:25;6.30;99.90
61807;DHT22;47726;52.766;6.606;2023-02-01T09:34:52;6.40;99.90
61807;DHT22;47726;52.766;6.606;2023-02-01T09:37:18;6.30;99.90
61807;DHT22;47726;52.766;6.606;2023-02-01T09:39:43;6.40;99.90
61807;DHT22;47726;52.766;6.606;2023-02-01T09:47:25;6.40;99.90
61807;DHT22;47726;52.766;6.606;2023-02-01T09:50:05;6.30;99.90
61807;DHT22;47726;52.766;6.606;2023-02-01T09:52:40;6.40;99.90
61807;DHT22;47726;52.766;6.606;2023-02-01T09:58:07;6.40;99.90
61807;DHT22;47726;52.766;6.606;2023-02-01T10:00:36;6.40;99.90
61807;DHT22;47726;52.766;6.606;2023-02-01T10:03:03;6.40;99.90
61807;DHT22;47726;52.766;6.606;2023-02-01T10:08:25;6.40;99.90
61807;DHT22;47726;52.766;6.606;2023-02-01T10:11:02;6.40;99.90
61807;DHT22;47726;52.766;6.606;2023-02-01T10:13:46;6.40;99.90
61807;DHT22;47726;52.766;6.606;2023-02-01T10:19:30;6.40;99.90
61807;DHT22;47726;52.766;6.606;2023-02-01T10:22:06;6.40;99.90
61807;DHT22;47726;52.766;6.606;2023-02-01T10:24:53;6.40;99.90
61807;DHT22;47726;52.766;6.606;2023-02-01T10:27:36;6.40;99.90
61807;DHT22;47726;52.766;6.606;2023-02-01T10:30:28;6.30;99.90
61807;DHT22;47726;52.766;6.606;2023-02-01T10:32:59;6.30;99.90
61807;DHT22;47726;52.766;6.606;2023-02-01T10:35:29;6.30;99.90
61807;DHT22;47726;52.766;6.606;2023-02-01T10:37:58;6.30;99.90
61807;DHT22;47726;52.766;6.606;2023-02-01T10:40:26;6.30;99.90
61807;DHT22;47726;52.766;6.606;2023-02-01T10:42:58;6.30;99.90
61807;DHT22;47726;52.766;6.606;2023-02-01T10:45:28;6.30;99.90
61807;DHT22;47726;52.766;6.606;2023-02-01T10:47:57;6.30;99.90
61807;DHT22;47726;52.766;6.606;2023-02-01T10:50:53;6.30;99.90
61807;DHT22;47726;52.766;6.606;2023-02-01T10:53:25;6.30;99.90
61807;DHT22;47726;52.766;6.606;2023-02-01T10:55:55;6.30;99.90
61807;DHT22;47726;52.766;6.606;2023-02-01T10:58:27;6.30;99.90
61807;DHT22;47726;52.766;6.606;2023-02-01T11:01:06;6.30;99.90
61807;DHT22;47726;52.766;6.606;2023-02-01T11:03:44;6.30;99.90
61807;DHT22;47726;52.766;6.606;2023-02-01T11:06:25;6.30;99.90
61807;DHT22;47726;52.766;6.606;2023-02-01T11:09:39;6.30;99.90
61807;DHT22;47726;52.766;6.606;2023-02-01T11:16:54;6.30;99.90
61807;DHT22;47726;52.766;6.606;2023-02-01T11:19:20;6.30;99.90
61807;DHT22;47726;52.766;6.606;2023-02-01T11:21:54;6.30;99.90
61807;DHT22;47726;52.766;6.606;2023-02-01T11:24:32;6.30;99.90
61807;DHT22;47726;52.766;6.606;2023-02-01T11:27:02;6.40;99.90
61807;DHT22;47726;52.766;6.606;2023-02-01T11:29:50;6.30;99.90
61807;DHT22;47726;52.766;6.606;2023-02-01T11:32:18;6.30;99.90
61807;DHT22;47726;52.766;6.606;2023-02-01T11:34:47;6.40;99.90
61807;DHT22;47726;52.766;6.606;2023-02-01T11:37:30;6.40;99.90
61807;DHT22;47726;52.766;6.606;2023-02-01T11:40:01;6.40;99.90
61807;DHT22;47726;52.766;6.606;2023-02-01T11:42:28;6.40;99.90
61807;DHT22;47726;52.766;6.606;2023-02-01T11:45:17;6.40;99.90
61807;DHT22;47726;52.766;6.606;2023-02-01T11:47:43;6.40;99.90
61807;DHT22;47726;52.766;6.606;2023-02-01T11:50:41;6.40;99.90
61807;DHT22;47726;52.766;6.606;2023-02-01T11:53:20;6.40;99.90
61807;DHT22;47726;52.766;6.606;2023-02-01T12:07:02;6.50;99.90
61807;DHT22;47726;52.766;6.606;2023-02-01T12:17:38;6.40;99.90
61807;DHT22;47726;52.766;6.606;2023-02-01T12:20:23;6.40;99.90
61807;DHT22;47726;52.766;6.606;2023-02-01T12:23:09;6.40;99.90
61807;DHT22;47726;52.766;6.606;2023-02-01T12:31:47;6.50;99.90
61807;DHT22;47726;52.766;6.606;2023-02-01T12:39:31;6.50;99.90
61807;DHT22;47726;52.766;6.606;2023-02-01T12:42:11;6.60;99.90
61807;DHT22;47726;52.766;6.606;2023-02-01T12:44:50;6.60;99.90
61807;DHT22;47726;52.766;6.606;2023-02-01T12:47:31;6.60;99.90
61807;DHT22;47726;52.766;6.606;2023-02-01T12:52:55;6.70;99.90
61807;DHT22;47726;52.766;6.606;2023-02-01T12:55:38;6.70;99.90
61807;DHT22;47726;52.766;6.606;2023-02-01T12:58:26;6.80;99.90
61807;DHT22;47726;52.766;6.606;2023-02-01T13:03:53;6.90;99.90
61807;DHT22;47726;52.766;6.606;2023-02-01T13:06:28;6.90;99.90
61807;DHT22;47726;52.766;6.606;2023-02-01T13:11:38;7.00;99.90
61807;DHT22;47726;52.766;6.606;2023-02-01T13:14:33;7.00;99.90
61807;DHT22;47726;52.766;6.606;2023-02-01T13:17:12;7.00;99.90
61807;DHT22;47726;52.766;6.606;2023-02-01T13:19:48;7.00;99.90
61807;DHT22;47726;52.766;6.606;2023-02-01T13:25:14;7.00;99.90
61807;DHT22;47726;52.766;6.606;2023-02-01T13:27:41;7.00;99.90
61807;DHT22;47726;52.766;6.606;2023-02-01T13:33:11;7.00;99.90
61807;DHT22;47726;52.766;6.606;2023-02-01T13:35:48;7.00;99.90
61807;DHT22;47726;52.766;6.606;2023-02-01T13:41:29;7.00;99.90
61807;DHT22;47726;52.766;6.606;2023-02-01T13:44:05;7.00;99.90
61807;DHT22;47726;52.766;6.606;2023-02-01T13:46:41;7.00;99.90
61807;DHT22;47726;52.766;6.606;2023-02-01T13:49:26;7.00;99.90
61807;DHT22;47726;52.766;6.606;2023-02-01T13:51:55;7.00;99.90
61807;DHT22;47726;52.766;6.606;2023-02-01T13:54:30;7.00;99.90
61807;DHT22;47726;52.766;6.606;2023-02-01T13:56:56;7.10;99.90
61807;DHT22;47726;52.766;6.606;2023-02-01T13:59:50;7.10;99.90
61807;DHT22;47726;52.766;6.606;2023-02-01T14:05:08;7.10;99.90
61807;DHT22;47726;52.766;6.606;2023-02-01T14:07:34;7.10;99.90
61807;DHT22;47726;52.766;6.606;2023-02-01T14:13:05;7.10;99.90
61807;DHT22;47726;52.766;6.606;2023-02-01T14:15:37;7.10;99.90
61807;DHT22;47726;52.766;6.606;2023-02-01T14:21:22;7.20;99.90
61807;DHT22;47726;52.766;6.606;2023-02-01T14:24:01;7.20;99.90
61807;DHT22;47726;52.766;6.606;2023-02-01T14:34:24;7.30;99.90
61807;DHT22;47726;52.766;6.606;2023-02-01T14:36:56;7.30;99.90
61807;DHT22;47726;52.766;6.606;2023-02-01T14:39:29;7.30;99.90
61807;DHT22;47726;52.766;6.606;2023-02-01T14:41:59;7.30;99.90
61807;DHT22;47726;52.766;6.606;2023-02-01T14:44:28;7.40;99.90
61807;DHT22;47726;52.766;6.606;2023-02-01T14:52:36;7.40;99.90
61807;DHT22;47726;52.766;6.606;2023-02-01T15:01:24;7.40;99.90
61807;DHT22;47726;52.766;6.606;2023-02-01T15:04:10;7.40;99.90
61807;DHT22;47726;52.766;6.606;2023-02-01T15:09:33;7.40;99.90
61807;DHT22;47726;52.766;6.606;2023-02-01T15:14:37;7.40;99.90
61807;DHT22;47726;52.766;6.606;2023-02-01T15:17:20;7.40;99.90
61807;DHT22;47726;52.766;6.606;2023-02-01T15:20:00;7.40;99.90
61807;DHT22;47726;52.766;6.606;2023-02-01T15:22:27;7.40;99.90
61807;DHT22;47726;52.766;6.606;2023-02-01T15:24:57;7.40;99.90
61807;DHT22;47726;52.766;6.606;2023-02-01T15:27:25;7.40;99.90
61807;DHT22;47726;52.766;6.606;2023-02-01T15:29:51;7.40;99.90
61807;DHT22;47726;52.766;6.606;2023-02-01T15:32:34;7.40;99.90
61807;DHT22;47726;52.766;6.606;2023-02-01T15:35:01;7.40;99.90
61807;DHT22;47726;52.766;6.606;2023-02-01T15:37:28;7.40;99.90
61807;DHT22;47726;52.766;6.606;2023-02-01T15:40:05;7.40;99.90
61807;DHT22;47726;52.766;6.606;2023-02-01T15:42:33;7.40;99.90
61807;DHT22;47726;52.766;6.606;2023-02-01T15:44:58;7.30;99.90
61807;DHT22;47726;52.766;6.606;2023-02-01T15:47:26;7.40;99.90
61807;DHT22;47726;52.766;6.606;2023-02-01T15:49:59;7.30;99.90
61807;DHT22;47726;52.766;6.606;2023-02-01T15:52:37;7.40;99.90
61807;DHT22;47726;52.766;6.606;2023-02-01T15:55:18;7.30;99.90
61807;DHT22;47726;52.766;6.606;2023-02-01T15:57:45;7.30;99.90
61807;DHT22;47726;52.766;6.606;2023-02-01T16:00:26;7.30;99.90
61807;DHT22;47726;52.766;6.606;2023-02-01T16:02:59;7.30;99.90
61807;DHT22;47726;52.766;6.606;2023-02-01T16:05:42;7.30;99.90
61807;DHT22;47726;52.766;6.606;2023-02-01T16:08:15;7.20;99.90
61807;DHT22;47726;52.766;6.606;2023-02-01T16:10:47;7.30;99.90
61807;DHT22;47726;52.766;6.606;2023-02-01T16:13:14;7.20;99.90
61807;DHT22;47726;52.766;6.606;2023-02-01T16:15:40;7.20;99.90
61807;DHT22;47726;52.766;6.606;2023-02-01T16:18:06;7.20;99.90
61807;DHT22;47726;52.766;6.606;2023-02-01T16:20:34;7.20;99.90
61807;DHT22;47726;52.766;6.606;2023-02-01T16:23:01;7.20;99.90
61807;DHT22;47726;52.766;6.606;2023-02-01T16:25:27;7.20;99.90
61807;DHT22;47726;52.766;6.606;2023-02-01T16:27:53;7.20;99.90
61807;DHT22;47726;52.766;6.606;2023-02-01T16:30:18;7.10;99.90
61807;DHT22;47726;52.766;6.606;2023-02-01T16:32:49;7.10;99.90
61807;DHT22;47726;52.766;6.606;2023-02-01T16:35:31;7.10;99.90
61807;DHT22;47726;52.766;6.606;2023-02-01T16:38:01;7.10;99.90
61807;DHT22;47726;52.766;6.606;2023-02-01T16:40:27;7.10;99.90
61807;DHT22;47726;52.766;6.606;2023-02-01T16:42:53;7.10;99.90
61807;DHT22;47726;52.766;6.606;2023-02-01T16:45:22;7.00;99.90
61807;DHT22;47726;52.766;6.606;2023-02-01T16:47:50;7.00;99.90
61807;DHT22;47726;52.766;6.606;2023-02-01T16:50:22;7.00;99.90
61807;DHT22;47726;52.766;6.606;2023-02-01T16:52:48;7.00;99.90
61807;DHT22;47726;52.766;6.606;2023-02-01T16:55:16;6.90;99.90
61807;DHT22;47726;52.766;6.606;2023-02-01T16:57:42;6.90;99.90
61807;DHT22;47726;52.766;6.606;2023-02-01T17:00:10;6.90;99.90
61807;DHT22;47726;52.766;6.606;2023-02-01T17:02:37;6.80;99.90
61807;DHT22;47726;52.766;6.606;2023-02-01T17:05:04;6.80;99.90
61807;DHT22;47726;52.766;6.606;2023-02-01T17:07:30;6.80;99.90
61807;DHT22;47726;52.766;6.606;2023-02-01T17:09:56;6.80;99.90
61807;DHT22;47726;52.766;6.606;2023-02-01T17:12:27;6.80;99.90
61807;DHT22;47726;52.766;6.606;2023-02-01T17:14:54;6.70;99.90
61807;DHT22;47726;52.766;6.606;2023-02-01T17:17:21;6.70;99.90
61807;DHT22;47726;52.766;6.606;2023-02-01T17:19:49;6.70;99.90
61807;DHT22;47726;52.766;6.606;2023-02-01T17:22:23;6.60;99.90
61807;DHT22;47726;52.766;6.606;2023-02-01T17:24:49;6.70;99.90
61807;DHT22;47726;52.766;6.606;2023-02-01T17:27:16;6.60;99.90
61807;DHT22;47726;52.766;6.606;2023-02-01T17:29:42;6.60;99.90
61807;DHT22;47726;52.766;6.606;2023-02-01T17:32:19;6.60;99.90
61807;DHT22;47726;52.766;6.606;2023-02-01T17:34:46;6.60;99.90
61807;DHT22;47726;52.766;6.606;2023-02-01T17:37:38;6.50;99.90
61807;DHT22;47726;52.766;6.606;2023-02-01T17:40:03;6.50;99.90
61807;DHT22;47726;52.766;6.606;2023-02-01T17:42:29;6.50;99.90
61807;DHT22;47726;52.766;6.606;2023-02-01T17:44:59;6.50;99.90
61807;DHT22;47726;52.766;6.606;2023-02-01T17:47:25;6.50;99.90
61807;DHT22;47726;52.766;6.606;2023-02-01T17:49:50;6.50;99.90
61807;DHT22;47726;52.766;6.606;2023-02-01T17:52:22;6.40;99.90
61807;DHT22;47726;52.766;6.606;2023-02-01T17:54:48;6.40;99.90
61807;DHT22;47726;52.766;6.606;2023-02-01T17:57:16;6.40;99.90
61807;DHT22;47726;52.766;6.606;2023-02-01T17:59:42;6.40;99.90
61807;DHT22;47726;52.766;6.606;2023-02-01T18:02:19;6.30;99.90
61807;DHT22;47726;52.766;6.606;2023-02-01T18:04:44;6.30;99.90
61807;DHT22;47726;52.766;6.606;2023-02-01T18:07:10;6.30;99.90
61807;DHT22;47726;52.766;6.606;2023-02-01T18:09:36;6.30;99.90
61807;DHT22;47726;52.766;6.606;2023-02-01T18:12:03;6.20;99.90
61807;DHT22;47726;52.766;6.606;2023-02-01T18:14:29;6.30;99.90
61807;DHT22;47726;52.766;6.606;2023-02-01T18:16:55;6.20;99.90
61807;DHT22;47726;52.766;6.606;2023-02-01T18:19:21;6.20;99.90